Terminal Aerodrome Forecast
Issued by NWS

Home | Current Version | Previous Version | Text Only | Print | Product List | Glossary Off
Versions: 1 2 3 4 5 6 7 8 9 10 11 12 13 14 15 16

000
FTUS43 KGRB 202238 AAB
TAFCWA
TAF AMD
KCWA 202238Z 2023/2118 28008G15KT P6SM OVC007
      TEMPO 2023/2024 4SM -RADZ BR SCT007 OVC012
     FM210000 30008KT P6SM OVC012
     FM210300 31011KT P6SM OVC015
     FM210600 32012KT P6SM OVC018
     FM211400 34012KT P6SM BKN025
      TEMPO 2115/2118 SCT025=

USA.gov is the U.S. government's official web portal to all federal, state and local government web resources and services.